Crawford, Oklahoma
Current Conditions -  °F | °C
As of 9:53 AM on Friday 24 Oct 2014 (Local Time) from KGAG Reporting Station
Haze Haze  
Wind Chill: 62°   Ceiling: Unl
Heat Index: 62°   Visibility: 5mi
Dew Point: 62°   Wind: 7mph
Humidity: 100%   Direction: 210°SSW
Pressure: 30.1"   Gusts: NA
Location:  35.83°N, 99.8°W
Report Text: KGAG 241453Z AUTO 21006KT 5SM BR CLR 17/17 A3010 RMK AO2 SLP179 T01670167 53012
Loading
Personal Weather Stations






























Interactive Weather Map New forecast layout! Learn more

10-Day Weather Forecast

Advertisements
Track Severe Weather on mobile